createdAt,value
2023-05-20T00:02:16.134Z,6.68
2023-05-20T00:04:44.010Z,6.28
2023-05-20T00:07:11.112Z,5.68
2023-05-20T00:09:39.512Z,6.70
2023-05-20T00:12:07.032Z,4.68
2023-05-20T00:14:34.081Z,6.13
2023-05-20T00:17:00.956Z,10.35
2023-05-20T00:19:27.898Z,6.22
2023-05-20T00:21:57.731Z,6.07
2023-05-20T00:24:25.480Z,5.50
2023-05-20T00:26:52.410Z,4.07
2023-05-20T00:29:19.946Z,7.43
2023-05-20T00:31:46.866Z,5.80
2023-05-20T00:34:13.985Z,5.25
2023-05-20T00:36:40.836Z,4.95
2023-05-20T00:39:07.985Z,4.97
2023-05-20T00:41:35.549Z,5.03
2023-05-20T00:44:02.694Z,4.82
2023-05-20T00:46:30.110Z,4.05
2023-05-20T00:48:58.057Z,4.03
2023-05-20T00:51:25.278Z,6.45
2023-05-20T00:53:52.199Z,5.43
2023-05-20T00:56:19.166Z,5.47
2023-05-20T00:58:46.532Z,4.55
2023-05-20T01:01:13.974Z,3.88
2023-05-20T01:03:41.167Z,5.53
2023-05-20T01:06:08.356Z,6.30
2023-05-20T01:08:35.708Z,6.88
2023-05-20T01:11:09.729Z,5.18
2023-05-20T01:13:48.003Z,4.55
2023-05-20T01:16:18.620Z,8.57
2023-05-20T01:18:49.059Z,5.90
2023-05-20T01:21:17.658Z,12.15
2023-05-20T01:23:44.617Z,5.55
2023-05-20T01:26:13.891Z,7.45
2023-05-20T01:28:43.996Z,5.68
2023-05-20T01:31:33.173Z,5.28
2023-05-20T01:34:01.510Z,7.85
2023-05-20T01:36:29.226Z,6.38
2023-05-20T01:38:57.630Z,6.07
2023-05-20T01:41:27.036Z,7.10
2023-05-20T01:43:54.896Z,5.75
2023-05-20T01:46:22.500Z,6.97
2023-05-20T01:48:49.437Z,5.57
2023-05-20T01:51:17.080Z,9.32
2023-05-20T01:53:44.641Z,4.85
2023-05-20T01:56:11.587Z,7.53
2023-05-20T01:58:38.811Z,5.95
2023-05-20T02:01:06.089Z,7.78
2023-05-20T02:03:33.263Z,4.82
2023-05-20T02:06:00.249Z,7.85
2023-05-20T02:08:27.196Z,5.53
2023-05-20T02:10:54.066Z,5.20
2023-05-20T02:13:20.929Z,6.50
2023-05-20T02:15:48.039Z,8.07
2023-05-20T02:18:19.030Z,5.85
2023-05-20T02:20:46.038Z,7.57
2023-05-20T02:23:12.905Z,6.43
2023-05-20T02:25:41.058Z,4.03
2023-05-20T02:28:10.779Z,4.65
2023-05-20T02:30:41.040Z,5.10
2023-05-20T02:33:09.026Z,7.40
2023-05-20T02:35:35.953Z,5.30
2023-05-20T02:38:02.913Z,6.28
2023-05-20T02:40:29.820Z,5.93
2023-05-20T02:42:56.700Z,6.13
2023-05-20T02:45:23.623Z,4.88
2023-05-20T02:47:50.571Z,4.03
2023-05-20T02:50:17.798Z,5.13
2023-05-20T02:52:45.718Z,7.72
2023-05-20T02:55:12.823Z,6.38
2023-05-20T02:57:40.248Z,5.95
2023-05-20T03:00:11.804Z,4.15
2023-05-20T03:02:38.740Z,3.97
2023-05-20T03:05:06.014Z,5.45
2023-05-20T03:07:36.271Z,4.07
2023-05-20T03:10:03.272Z,6.03
2023-05-20T03:12:31.054Z,5.25
2023-05-20T03:14:59.156Z,4.63
2023-05-20T03:17:26.061Z,5.47
2023-05-20T03:19:53.277Z,5.18
2023-05-20T03:22:20.362Z,7.75
2023-05-20T03:24:48.552Z,4.40
2023-05-20T03:27:15.567Z,4.50
2023-05-20T03:29:42.549Z,4.15
2023-05-20T03:32:10.862Z,4.50
2023-05-20T03:34:38.559Z,3.88
2023-05-20T03:37:05.852Z,8.48
2023-05-20T03:39:32.964Z,7.07
2023-05-20T03:41:59.848Z,4.72
2023-05-20T03:44:26.793Z,7.90
2023-05-20T03:46:53.788Z,4.13
2023-05-20T03:49:20.987Z,7.05
2023-05-20T03:51:47.840Z,5.10
2023-05-20T03:54:16.797Z,6.10
2023-05-20T03:56:43.845Z,7.28
2023-05-20T03:59:10.693Z,6.03
2023-05-20T04:01:37.503Z,6.68
2023-05-20T04:04:04.584Z,5.30
2023-05-20T04:06:31.752Z,7.07
2023-05-20T04:08:58.683Z,5.75
2023-05-20T04:11:26.222Z,5.32
2023-05-20T04:13:53.061Z,7.13
2023-05-20T04:16:20.103Z,4.88
2023-05-20T04:18:48.417Z,5.47
2023-05-20T04:21:15.580Z,5.38
2023-05-20T04:23:42.448Z,4.93
2023-05-20T04:26:09.348Z,5.78
2023-05-20T04:28:37.861Z,5.30
2023-05-20T04:31:05.071Z,5.40
2023-05-20T04:33:32.966Z,6.35
2023-05-20T04:36:01.843Z,5.72
2023-05-20T04:38:32.494Z,7.53
2023-05-20T04:41:00.420Z,7.72
2023-05-20T04:43:30.268Z,8.70
2023-05-20T04:45:58.048Z,4.13
2023-05-20T04:48:25.213Z,5.57
2023-05-20T04:50:52.384Z,6.70
2023-05-20T04:53:19.793Z,5.93
2023-05-20T04:55:46.710Z,8.45
2023-05-20T04:58:15.822Z,4.25
2023-05-20T05:00:43.512Z,7.78
2023-05-20T05:03:10.632Z,5.25
2023-05-20T05:05:39.172Z,8.50
2023-05-20T05:08:06.956Z,7.38
2023-05-20T05:10:34.075Z,5.63
2023-05-20T05:13:01.430Z,5.30
2023-05-20T05:15:28.864Z,6.45
2023-05-20T05:17:56.317Z,5.28
2023-05-20T05:20:23.520Z,6.57
2023-05-20T05:22:50.836Z,6.47
2023-05-20T05:25:18.023Z,10.15
2023-05-20T05:27:45.013Z,5.65
2023-05-20T05:30:12.100Z,9.90
2023-05-20T05:32:39.322Z,7.43
2023-05-20T05:35:08.254Z,5.35
2023-05-20T05:37:35.491Z,4.65
2023-05-20T05:40:02.379Z,5.03
2023-05-20T05:42:29.404Z,8.38
2023-05-20T05:44:56.367Z,4.32
2023-05-20T05:47:23.506Z,11.02
2023-05-20T05:49:50.420Z,6.90
2023-05-20T05:52:17.344Z,5.38
2023-05-20T05:54:46.548Z,6.75
2023-05-20T05:57:13.736Z,6.75
2023-05-20T05:59:41.005Z,7.78
2023-05-20T06:02:10.016Z,4.38
2023-05-20T06:04:36.984Z,6.18
2023-05-20T06:07:03.892Z,5.80
2023-05-20T06:09:30.921Z,6.88
2023-05-20T06:11:57.847Z,7.07
2023-05-20T06:14:24.725Z,9.73
2023-05-20T06:16:51.659Z,4.82
2023-05-20T06:19:21.502Z,5.47
2023-05-20T06:21:48.349Z,8.00
2023-05-20T06:24:16.061Z,4.60
2023-05-20T06:26:43.201Z,5.28
2023-05-20T06:29:10.064Z,5.85
2023-05-20T06:31:36.892Z,7.57
2023-05-20T06:34:04.017Z,7.00
2023-05-20T06:36:33.563Z,6.28
2023-05-20T06:39:00.784Z,4.57
2023-05-20T06:41:27.763Z,5.53
2023-05-20T06:43:54.603Z,5.88
2023-05-20T06:46:21.514Z,9.75
2023-05-20T06:48:48.466Z,9.45
2023-05-20T06:51:15.333Z,5.15
2023-05-20T06:53:42.250Z,5.88
2023-05-20T06:56:09.036Z,6.95
2023-05-20T06:58:35.905Z,3.55
2023-05-20T07:01:02.750Z,6.60
2023-05-20T07:03:29.593Z,4.32
2023-05-20T07:05:56.843Z,6.05
2023-05-20T07:08:24.104Z,4.43
2023-05-20T07:10:51.131Z,4.75
2023-05-20T07:13:18.706Z,5.60
2023-05-20T07:15:48.822Z,11.10
2023-05-20T07:18:16.374Z,5.47
2023-05-20T07:20:43.690Z,6.07
2023-05-20T07:23:10.828Z,8.63
2023-05-20T07:25:37.632Z,4.28
2023-05-20T07:28:04.723Z,5.30
2023-05-20T07:30:32.729Z,5.95
2023-05-20T07:32:59.594Z,6.10
2023-05-20T07:35:26.903Z,7.05
2023-05-20T07:37:53.769Z,5.95
2023-05-20T07:40:20.651Z,6.35
2023-05-20T07:42:47.458Z,6.95
2023-05-20T07:45:14.545Z,4.50
2023-05-20T07:47:41.382Z,10.10
2023-05-20T07:50:08.554Z,3.85
2023-05-20T07:52:47.737Z,6.10
2023-05-20T07:55:22.819Z,4.70
2023-05-20T07:57:49.950Z,5.32
2023-05-20T08:00:16.958Z,7.25
2023-05-20T08:02:44.060Z,5.68
2023-05-20T08:05:11.048Z,5.93
2023-05-20T08:07:38.126Z,5.97
2023-05-20T08:10:05.496Z,5.88
2023-05-20T08:12:32.713Z,7.25
2023-05-20T08:14:59.534Z,4.30
2023-05-20T08:17:26.841Z,5.35
2023-05-20T08:19:54.005Z,7.75
2023-05-20T08:22:20.901Z,5.55
2023-05-20T08:24:47.769Z,7.30
2023-05-20T08:27:14.618Z,6.28
2023-05-20T08:29:41.608Z,5.93
2023-05-20T08:32:08.511Z,7.43
2023-05-20T08:34:35.283Z,5.72
2023-05-20T08:37:02.202Z,8.55
2023-05-20T08:39:29.340Z,6.53
2023-05-20T08:41:56.347Z,6.18
2023-05-20T08:44:24.481Z,3.53
2023-05-20T08:46:52.562Z,4.25
2023-05-20T08:49:20.620Z,7.00
2023-05-20T08:51:48.362Z,4.20
2023-05-20T08:54:16.881Z,5.72
2023-05-20T08:56:44.524Z,8.13
2023-05-20T08:59:11.722Z,4.53
2023-05-20T09:01:45.843Z,5.95
2023-05-20T09:04:12.709Z,5.00
2023-05-20T09:06:49.764Z,4.97
2023-05-20T09:09:17.083Z,3.92
2023-05-20T09:11:44.205Z,4.10
2023-05-20T09:14:11.308Z,5.85
2023-05-20T09:16:41.354Z,6.20
2023-05-20T09:19:09.966Z,4.35
2023-05-20T09:21:37.821Z,4.78
2023-05-20T09:24:06.006Z,4.82
2023-05-20T09:26:32.997Z,4.88
2023-05-20T09:29:00.290Z,6.20
2023-05-20T09:31:29.847Z,7.18
2023-05-20T09:33:57.273Z,6.65
2023-05-20T09:36:25.270Z,4.60
2023-05-20T09:38:53.658Z,6.13
2023-05-20T09:41:24.281Z,6.38
2023-05-20T09:43:52.782Z,4.43
2023-05-20T09:46:20.505Z,3.70
2023-05-20T09:48:48.024Z,5.18
2023-05-20T09:51:15.924Z,7.15
2023-05-20T09:53:43.330Z,3.88
2023-05-20T09:56:10.549Z,3.50
2023-05-20T09:58:39.507Z,5.35
2023-05-20T10:01:08.086Z,4.10
2023-05-20T10:03:36.246Z,3.55
2023-05-20T10:06:37.869Z,7.82
2023-05-20T10:09:41.265Z,5.47
2023-05-20T10:12:26.256Z,4.18
2023-05-20T10:15:05.115Z,4.97
2023-05-20T10:17:37.867Z,5.50
2023-05-20T10:22:34.337Z,5.22
2023-05-20T10:25:07.757Z,4.75
2023-05-20T10:27:46.919Z,4.78
2023-05-20T10:30:19.663Z,3.97
2023-05-20T10:32:57.208Z,5.47
2023-05-20T10:35:28.949Z,5.50
2023-05-20T10:38:13.520Z,4.30
2023-05-20T10:40:41.192Z,4.43
2023-05-20T10:43:12.627Z,4.93
2023-05-20T10:45:53.868Z,6.70
2023-05-20T10:48:24.746Z,7.15
2023-05-20T10:50:58.742Z,5.50
2023-05-20T10:53:34.236Z,5.50
2023-05-20T10:56:01.853Z,4.15
2023-05-20T10:58:36.449Z,6.57
2023-05-20T11:01:03.630Z,7.20
2023-05-20T11:03:31.671Z,5.57
2023-05-20T11:05:58.549Z,5.93
2023-05-20T11:08:30.832Z,6.82
2023-05-20T11:10:58.074Z,5.88
2023-05-20T11:13:26.040Z,4.97
2023-05-20T11:15:53.366Z,4.70
2023-05-20T11:18:20.576Z,3.78
2023-05-20T11:20:47.864Z,10.18
2023-05-20T11:23:15.472Z,4.68
2023-05-20T11:25:42.479Z,3.92
2023-05-20T11:28:15.553Z,6.15
2023-05-20T11:30:43.507Z,4.93
2023-05-20T11:33:13.521Z,5.57
2023-05-20T11:35:49.662Z,4.90
2023-05-20T11:38:16.965Z,5.40
2023-05-20T11:40:52.455Z,4.88
2023-05-20T11:43:22.776Z,5.47
2023-05-20T11:45:59.991Z,7.20
2023-05-20T11:48:27.345Z,5.95
2023-05-20T11:50:56.052Z,7.47
2023-05-20T11:53:24.903Z,8.27
2023-05-20T11:55:57.065Z,8.38
2023-05-20T11:58:26.147Z,5.22
2023-05-20T12:00:59.559Z,3.92
2023-05-20T12:03:37.179Z,4.88
2023-05-20T12:06:04.390Z,5.40
2023-05-20T12:08:31.456Z,8.07
2023-05-20T12:10:58.728Z,5.47
2023-05-20T12:13:25.718Z,5.53
2023-05-20T12:15:52.783Z,4.65
2023-05-20T12:18:19.783Z,7.50
2023-05-20T12:20:46.921Z,5.72
2023-05-20T12:23:13.845Z,4.82
2023-05-20T12:25:41.130Z,4.55
2023-05-20T12:28:08.636Z,5.45
2023-05-20T12:30:36.171Z,6.57
2023-05-20T12:33:03.839Z,5.03
2023-05-20T12:35:41.993Z,5.53
2023-05-20T12:38:09.493Z,6.28
2023-05-20T12:40:37.860Z,7.07
2023-05-20T12:43:06.008Z,5.72
2023-05-20T12:45:33.140Z,5.05
2023-05-20T12:48:00.663Z,5.65
2023-05-20T12:50:28.346Z,5.57
2023-05-20T12:52:55.776Z,9.18
2023-05-20T12:55:23.072Z,8.75
2023-05-20T12:57:50.560Z,8.30
2023-05-20T13:00:17.669Z,7.40
2023-05-20T13:02:44.883Z,4.60
2023-05-20T13:05:12.650Z,4.53
2023-05-20T13:07:40.102Z,5.18
2023-05-20T13:10:08.161Z,6.45
2023-05-20T13:12:36.149Z,5.38
2023-05-20T13:15:04.630Z,6.53
2023-05-20T13:17:32.151Z,6.72
2023-05-20T13:19:59.348Z,8.20
2023-05-20T13:22:26.545Z,7.28
2023-05-20T13:24:53.711Z,8.77
2023-05-20T13:27:20.635Z,7.72
2023-05-20T13:29:47.489Z,9.60
2023-05-20T13:32:14.700Z,5.60
2023-05-20T13:34:41.566Z,6.05
2023-05-20T13:37:08.484Z,6.43
2023-05-20T13:39:36.425Z,6.30
2023-05-20T13:42:04.594Z,4.97
2023-05-20T13:44:32.647Z,5.32
2023-05-20T13:46:59.961Z,6.47
2023-05-20T13:49:27.145Z,7.72
2023-05-20T13:51:54.054Z,5.53
2023-05-20T13:54:21.815Z,6.07
2023-05-20T13:56:48.878Z,5.60
2023-05-20T13:59:15.900Z,7.20
2023-05-20T14:01:45.284Z,6.03
2023-05-20T14:04:13.416Z,6.10
2023-05-20T14:06:40.631Z,6.57
2023-05-20T14:09:09.280Z,7.30
2023-05-20T14:11:37.552Z,7.40
2023-05-20T14:14:04.505Z,6.25
2023-05-20T14:16:32.152Z,5.13
2023-05-20T14:18:59.425Z,8.43
2023-05-20T14:21:26.561Z,6.10
2023-05-20T14:23:53.760Z,5.50
2023-05-20T14:26:21.588Z,5.05
2023-05-20T14:28:48.753Z,6.47
2023-05-20T14:31:16.078Z,4.85
2023-05-20T14:33:45.459Z,5.07
2023-05-20T14:36:12.326Z,5.30
2023-05-20T14:38:39.251Z,5.40
2023-05-20T14:41:06.114Z,5.68
2023-05-20T14:43:33.387Z,4.82
2023-05-20T14:46:01.132Z,5.60
2023-05-20T14:48:28.011Z,4.70
2023-05-20T14:50:55.026Z,5.38
2023-05-20T14:53:23.331Z,6.55
2023-05-20T14:55:50.233Z,6.15
2023-05-20T14:58:17.219Z,7.40
2023-05-20T15:00:44.609Z,6.45
2023-05-20T15:03:12.013Z,6.50
2023-05-20T15:05:39.081Z,5.97
2023-05-20T15:08:06.459Z,5.80
2023-05-20T15:10:33.769Z,4.95
2023-05-20T15:13:00.869Z,6.88
2023-05-20T15:15:27.882Z,6.70
2023-05-20T15:17:55.690Z,5.70
2023-05-20T15:20:38.674Z,5.10
2023-05-20T15:25:33.118Z,7.25
2023-05-20T15:28:00.050Z,5.40
2023-05-20T15:30:26.869Z,4.50
2023-05-20T15:32:53.715Z,8.27
2023-05-20T15:35:20.834Z,9.20
2023-05-20T15:37:47.684Z,6.28
2023-05-20T15:40:15.825Z,6.60
2023-05-20T15:42:43.073Z,5.28
2023-05-20T15:45:10.478Z,7.60
2023-05-20T15:47:39.254Z,5.60
2023-05-20T15:50:08.634Z,5.68
2023-05-20T15:52:35.680Z,5.38
2023-05-20T15:55:02.830Z,8.52
2023-05-20T15:57:30.719Z,6.70
2023-05-20T15:59:57.820Z,6.45
2023-05-20T16:02:25.076Z,8.68
2023-05-20T16:04:52.427Z,7.03
2023-05-20T16:07:19.359Z,5.55
2023-05-20T16:09:46.250Z,6.13
2023-05-20T16:12:13.068Z,7.03
2023-05-20T16:14:39.863Z,7.20
2023-05-20T16:17:06.625Z,6.65
2023-05-20T16:19:33.603Z,8.05
2023-05-20T16:22:00.473Z,6.82
2023-05-20T16:24:27.264Z,7.05
2023-05-20T16:26:54.240Z,7.30
2023-05-20T16:29:21.420Z,6.45
2023-05-20T16:31:48.311Z,5.70
2023-05-20T16:34:16.515Z,8.13
2023-05-20T16:36:45.112Z,6.22
2023-05-20T16:39:12.862Z,9.50
2023-05-20T16:41:39.636Z,5.97
2023-05-20T16:44:06.496Z,6.57
2023-05-20T16:46:33.352Z,11.20
2023-05-20T16:49:00.114Z,12.75
2023-05-20T16:51:27.163Z,5.70
2023-05-20T16:53:54.056Z,7.40
2023-05-20T16:56:22.102Z,6.68
2023-05-20T16:58:50.629Z,6.00
2023-05-20T17:01:22.435Z,8.38
2023-05-20T17:03:50.617Z,7.75
2023-05-20T17:06:18.908Z,6.18
2023-05-20T17:08:46.623Z,7.85
2023-05-20T17:11:13.518Z,7.20
2023-05-20T17:13:41.703Z,5.57
2023-05-20T17:16:09.979Z,9.52
2023-05-20T17:18:37.322Z,6.97
2023-05-20T17:21:04.344Z,4.93
2023-05-20T17:23:31.281Z,7.75
2023-05-20T17:25:58.217Z,7.47
2023-05-20T17:28:25.039Z,8.55
2023-05-20T17:30:51.794Z,9.00
2023-05-20T17:33:18.669Z,5.25
2023-05-20T17:35:45.479Z,5.78
2023-05-20T17:38:12.415Z,7.03
2023-05-20T17:40:39.243Z,9.15
2023-05-20T17:43:06.097Z,7.40
2023-05-20T17:45:32.918Z,7.25
2023-05-20T17:47:59.779Z,5.32
2023-05-20T17:50:27.974Z,5.85
2023-05-20T17:52:54.734Z,5.22
2023-05-20T17:55:22.166Z,7.13
2023-05-20T17:57:49.005Z,6.68
2023-05-20T18:00:18.017Z,5.70
2023-05-20T18:02:48.063Z,5.22
2023-05-20T18:05:16.900Z,7.45
2023-05-20T18:07:44.229Z,8.98
2023-05-20T18:10:11.909Z,6.97
2023-05-20T18:12:38.733Z,5.95
2023-05-20T18:15:06.388Z,6.93
2023-05-20T18:17:33.317Z,6.35
2023-05-20T18:20:00.351Z,6.20
2023-05-20T18:22:28.159Z,7.50
2023-05-20T18:24:55.030Z,6.80
2023-05-20T18:27:21.951Z,6.03
2023-05-20T18:29:50.036Z,8.32
2023-05-20T18:32:17.071Z,8.65
2023-05-20T18:34:43.920Z,8.77
2023-05-20T18:37:11.250Z,7.55
2023-05-20T18:39:38.097Z,12.80
2023-05-20T18:42:05.229Z,6.85
2023-05-20T18:44:32.070Z,8.65
2023-05-20T18:46:58.923Z,7.32
2023-05-20T18:49:26.229Z,6.72
2023-05-20T18:51:53.024Z,7.70
2023-05-20T18:54:19.887Z,7.95
2023-05-20T18:56:48.492Z,9.77
2023-05-20T18:59:15.670Z,10.13
2023-05-20T19:01:42.461Z,9.77
2023-05-20T19:04:09.287Z,11.63
2023-05-20T19:06:37.448Z,7.30
2023-05-20T19:09:04.846Z,8.82
2023-05-20T19:11:31.874Z,6.82
2023-05-20T19:13:59.023Z,8.23
2023-05-20T19:16:26.760Z,8.98
2023-05-20T19:18:53.698Z,9.93
2023-05-20T19:21:20.589Z,13.07
2023-05-20T19:23:48.772Z,9.93
2023-05-20T19:26:15.988Z,8.75
2023-05-20T19:28:42.881Z,13.07
2023-05-20T19:31:09.748Z,11.10
2023-05-20T19:33:36.754Z,11.32
2023-05-20T19:36:03.824Z,12.88
2023-05-20T19:38:30.669Z,11.75
2023-05-20T19:40:57.497Z,13.23
2023-05-20T19:43:24.423Z,13.88
2023-05-20T19:45:51.350Z,15.85
2023-05-20T19:48:20.036Z,11.70
2023-05-20T19:50:51.819Z,14.88
2023-05-20T19:53:20.882Z,14.13
2023-05-20T19:55:48.904Z,11.90
2023-05-20T19:58:22.659Z,11.00
2023-05-20T20:03:34.529Z,10.65
2023-05-20T20:06:04.472Z,10.30
2023-05-20T20:08:31.729Z,9.30
2023-05-20T20:10:58.974Z,9.45
2023-05-20T20:13:26.258Z,13.63
2023-05-20T20:15:53.500Z,13.57
2023-05-20T20:18:20.888Z,10.70
2023-05-20T20:20:48.797Z,11.20
2023-05-20T20:23:15.968Z,16.40
2023-05-20T20:25:43.750Z,8.90
2023-05-20T20:28:11.624Z,13.57
2023-05-20T20:30:39.949Z,12.25
2023-05-20T20:33:10.409Z,15.02
2023-05-20T20:35:46.183Z,12.60
2023-05-20T20:38:13.490Z,13.27
2023-05-20T20:40:42.613Z,10.63
2023-05-20T20:43:15.135Z,11.25
2023-05-20T20:45:42.884Z,10.15
2023-05-20T20:48:09.889Z,9.77
2023-05-20T20:50:37.280Z,11.70
2023-05-20T20:53:04.433Z,14.68
2023-05-20T20:55:31.616Z,13.02
2023-05-20T20:58:02.863Z,13.38
2023-05-20T21:00:30.228Z,13.60
2023-05-20T21:02:57.236Z,14.75
2023-05-20T21:05:26.809Z,15.70
2023-05-20T21:07:58.411Z,14.88
2023-05-20T21:10:29.877Z,13.90
2023-05-20T21:12:57.962Z,12.82
2023-05-20T21:15:25.834Z,13.77
2023-05-20T21:17:53.165Z,14.45
2023-05-20T21:20:21.717Z,15.38
2023-05-20T21:22:49.464Z,9.93
2023-05-20T21:25:16.662Z,11.98
2023-05-20T21:27:43.866Z,12.75
2023-05-20T21:30:11.957Z,15.23
2023-05-20T21:32:39.289Z,15.27
2023-05-20T21:35:07.025Z,12.65
2023-05-20T21:37:34.135Z,13.90
2023-05-20T21:40:01.078Z,15.45
2023-05-20T21:42:29.037Z,16.42
2023-05-20T21:44:56.253Z,15.20
2023-05-20T21:47:23.244Z,13.70
2023-05-20T21:49:50.474Z,14.13
2023-05-20T21:52:17.594Z,14.98
2023-05-20T21:54:44.551Z,14.52
2023-05-20T21:57:11.700Z,15.52
2023-05-20T21:59:38.867Z,15.13
2023-05-20T22:02:06.258Z,13.73
2023-05-20T22:04:34.180Z,15.85
2023-05-20T22:07:01.437Z,15.95
2023-05-20T22:09:29.981Z,14.38
2023-05-20T22:11:57.047Z,17.30
2023-05-20T22:14:24.168Z,16.08
2023-05-20T22:16:53.674Z,15.90
2023-05-20T22:19:25.225Z,16.23
2023-05-20T22:21:52.612Z,17.70
2023-05-20T22:24:19.538Z,19.10
2023-05-20T22:26:46.667Z,16.92
2023-05-20T22:29:13.695Z,27.50
2023-05-20T22:31:42.979Z,20.20
2023-05-20T22:34:10.342Z,21.25
2023-05-20T22:36:37.949Z,19.35
2023-05-20T22:39:07.304Z,19.98
2023-05-20T22:41:34.300Z,18.67
2023-05-20T22:44:01.653Z,14.98
2023-05-20T22:46:30.957Z,16.33
2023-05-20T22:48:58.552Z,17.25
2023-05-20T22:51:26.341Z,16.90
2023-05-20T22:53:53.636Z,15.88
2023-05-20T22:56:21.397Z,18.77
2023-05-20T22:58:48.599Z,15.68
2023-05-20T23:01:17.167Z,16.70
2023-05-20T23:03:54.862Z,18.17
2023-05-20T23:06:22.816Z,18.88
2023-05-20T23:08:53.254Z,20.73
2023-05-20T23:11:23.694Z,17.23
2023-05-20T23:13:51.201Z,21.65
2023-05-20T23:16:18.437Z,17.80
2023-05-20T23:18:46.758Z,17.90
2023-05-20T23:21:14.506Z,17.10
2023-05-20T23:23:42.460Z,19.88
2023-05-20T23:26:09.451Z,16.88
2023-05-20T23:28:36.956Z,18.00
2023-05-20T23:31:04.156Z,20.30
2023-05-20T23:33:31.257Z,17.00
2023-05-20T23:35:58.587Z,20.17
2023-05-20T23:38:25.586Z,16.85
2023-05-20T23:40:53.718Z,19.05
2023-05-20T23:43:23.001Z,19.83
2023-05-20T23:45:49.942Z,16.83
2023-05-20T23:48:17.967Z,20.88
2023-05-20T23:50:46.380Z,22.50
2023-05-20T23:53:13.304Z,20.25
2023-05-20T23:55:40.285Z,20.42
2023-05-20T23:58:07.437Z,20.15
